sensor_id;sensor_type;location;lat;lon;timestamp;temperature;humidity
68217;DHT22;55037;52.354;4.992;2022-07-05T00:00:57;18.00;69.00
68217;DHT22;55037;52.354;4.992;2022-07-05T00:03:25;18.00;69.20
68217;DHT22;55037;52.354;4.992;2022-07-05T00:05:52;18.00;69.20
68217;DHT22;55037;52.354;4.992;2022-07-05T00:08:20;18.00;68.80
68217;DHT22;55037;52.354;4.992;2022-07-05T00:10:47;18.00;68.90
68217;DHT22;55037;52.354;4.992;2022-07-05T00:13:15;18.00;68.90
68217;DHT22;55037;52.354;4.992;2022-07-05T00:15:42;18.00;68.80
68217;DHT22;55037;52.354;4.992;2022-07-05T00:18:09;18.00;68.10
68217;DHT22;55037;52.354;4.992;2022-07-05T00:20:37;18.00;68.90
68217;DHT22;55037;52.354;4.992;2022-07-05T00:23:04;18.00;69.00
68217;DHT22;55037;52.354;4.992;2022-07-05T00:25:31;18.10;69.10
68217;DHT22;55037;52.354;4.992;2022-07-05T00:27:58;18.00;68.90
68217;DHT22;55037;52.354;4.992;2022-07-05T00:30:26;18.00;68.80
68217;DHT22;55037;52.354;4.992;2022-07-05T00:32:53;18.00;69.00
68217;DHT22;55037;52.354;4.992;2022-07-05T00:35:20;17.90;69.10
68217;DHT22;55037;52.354;4.992;2022-07-05T00:37:48;17.90;69.70
68217;DHT22;55037;52.354;4.992;2022-07-05T00:40:15;17.80;69.90
68217;DHT22;55037;52.354;4.992;2022-07-05T00:42:42;17.80;69.90
68217;DHT22;55037;52.354;4.992;2022-07-05T00:45:10;17.70;70.20
68217;DHT22;55037;52.354;4.992;2022-07-05T00:47:37;17.60;70.30
68217;DHT22;55037;52.354;4.992;2022-07-05T00:50:05;17.60;71.10
68217;DHT22;55037;52.354;4.992;2022-07-05T00:52:32;17.60;71.40
68217;DHT22;55037;52.354;4.992;2022-07-05T00:55:00;17.60;71.50
68217;DHT22;55037;52.354;4.992;2022-07-05T00:57:27;17.50;72.10
68217;DHT22;55037;52.354;4.992;2022-07-05T00:59:55;17.40;72.10
68217;DHT22;55037;52.354;4.992;2022-07-05T01:02:22;17.40;72.20
68217;DHT22;55037;52.354;4.992;2022-07-05T01:04:51;17.30;72.30
68217;DHT22;55037;52.354;4.992;2022-07-05T01:07:21;17.30;72.80
68217;DHT22;55037;52.354;4.992;2022-07-05T01:09:48;17.20;73.00
68217;DHT22;55037;52.354;4.992;2022-07-05T01:12:17;17.20;73.50
68217;DHT22;55037;52.354;4.992;2022-07-05T01:14:45;17.10;73.90
68217;DHT22;55037;52.354;4.992;2022-07-05T01:17:14;17.10;74.30
68217;DHT22;55037;52.354;4.992;2022-07-05T01:19:42;17.00;74.50
68217;DHT22;55037;52.354;4.992;2022-07-05T01:22:16;17.00;74.70
68217;DHT22;55037;52.354;4.992;2022-07-05T01:24:49;17.00;75.00
68217;DHT22;55037;52.354;4.992;2022-07-05T01:27:18;16.90;75.00
68217;DHT22;55037;52.354;4.992;2022-07-05T01:29:46;16.90;75.10
68217;DHT22;55037;52.354;4.992;2022-07-05T01:32:14;16.90;75.40
68217;DHT22;55037;52.354;4.992;2022-07-05T01:34:42;16.90;75.80
68217;DHT22;55037;52.354;4.992;2022-07-05T01:37:11;16.90;75.90
68217;DHT22;55037;52.354;4.992;2022-07-05T01:39:38;16.90;76.10
68217;DHT22;55037;52.354;4.992;2022-07-05T01:42:06;17.00;76.40
68217;DHT22;55037;52.354;4.992;2022-07-05T01:44:34;17.00;76.50
68217;DHT22;55037;52.354;4.992;2022-07-05T01:47:06;17.10;76.20
68217;DHT22;55037;52.354;4.992;2022-07-05T01:49:36;17.10;76.30
68217;DHT22;55037;52.354;4.992;2022-07-05T01:52:10;17.10;76.00
68217;DHT22;55037;52.354;4.992;2022-07-05T01:54:39;17.10;75.90
68217;DHT22;55037;52.354;4.992;2022-07-05T01:57:08;17.10;75.90
68217;DHT22;55037;52.354;4.992;2022-07-05T01:59:36;17.00;75.40
68217;DHT22;55037;52.354;4.992;2022-07-05T02:02:05;17.00;76.40
68217;DHT22;55037;52.354;4.992;2022-07-05T02:04:36;16.90;76.70
68217;DHT22;55037;52.354;4.992;2022-07-05T02:07:08;16.80;76.80
68217;DHT22;55037;52.354;4.992;2022-07-05T02:09:37;16.80;77.80
68217;DHT22;55037;52.354;4.992;2022-07-05T02:12:05;16.70;78.10
68217;DHT22;55037;52.354;4.992;2022-07-05T02:14:33;16.70;78.40
68217;DHT22;55037;52.354;4.992;2022-07-05T02:17:04;16.70;78.30
68217;DHT22;55037;52.354;4.992;2022-07-05T02:19:35;16.60;78.20
68217;DHT22;55037;52.354;4.992;2022-07-05T02:22:04;16.60;78.30
68217;DHT22;55037;52.354;4.992;2022-07-05T02:24:33;16.60;78.30
68217;DHT22;55037;52.354;4.992;2022-07-05T02:27:10;16.60;78.60
68217;DHT22;55037;52.354;4.992;2022-07-05T02:29:38;16.50;78.10
68217;DHT22;55037;52.354;4.992;2022-07-05T02:32:06;16.60;79.10
68217;DHT22;55037;52.354;4.992;2022-07-05T02:34:33;16.60;79.10
68217;DHT22;55037;52.354;4.992;2022-07-05T02:37:01;16.60;79.10
68217;DHT22;55037;52.354;4.992;2022-07-05T02:39:28;16.60;79.10
68217;DHT22;55037;52.354;4.992;2022-07-05T02:41:58;16.60;79.10
68217;DHT22;55037;52.354;4.992;2022-07-05T02:44:25;16.60;79.20
68217;DHT22;55037;52.354;4.992;2022-07-05T02:46:53;16.60;79.10
68217;DHT22;55037;52.354;4.992;2022-07-05T02:49:21;16.60;79.10
68217;DHT22;55037;52.354;4.992;2022-07-05T02:51:48;16.60;79.00
68217;DHT22;55037;52.354;4.992;2022-07-05T02:54:16;16.60;78.90
68217;DHT22;55037;52.354;4.992;2022-07-05T02:56:43;16.60;78.70
68217;DHT22;55037;52.354;4.992;2022-07-05T02:59:14;16.60;78.90
68217;DHT22;55037;52.354;4.992;2022-07-05T03:01:42;16.50;79.10
68217;DHT22;55037;52.354;4.992;2022-07-05T03:04:13;16.50;79.20
68217;DHT22;55037;52.354;4.992;2022-07-05T03:06:48;16.50;79.40
68217;DHT22;55037;52.354;4.992;2022-07-05T03:09:20;16.50;79.60
68217;DHT22;55037;52.354;4.992;2022-07-05T03:11:48;16.50;79.60
68217;DHT22;55037;52.354;4.992;2022-07-05T03:14:16;16.50;79.80
68217;DHT22;55037;52.354;4.992;2022-07-05T03:16:45;16.50;79.90
68217;DHT22;55037;52.354;4.992;2022-07-05T03:19:13;16.50;79.90
68217;DHT22;55037;52.354;4.992;2022-07-05T03:21:40;16.50;79.70
68217;DHT22;55037;52.354;4.992;2022-07-05T03:24:08;16.60;79.70
68217;DHT22;55037;52.354;4.992;2022-07-05T03:26:37;16.70;79.60
68217;DHT22;55037;52.354;4.992;2022-07-05T03:29:05;16.60;79.40
68217;DHT22;55037;52.354;4.992;2022-07-05T03:31:32;16.70;79.50
68217;DHT22;55037;52.354;4.992;2022-07-05T03:34:03;16.70;79.30
68217;DHT22;55037;52.354;4.992;2022-07-05T03:36:31;16.80;79.20
68217;DHT22;55037;52.354;4.992;2022-07-05T03:39:02;16.90;79.20
68217;DHT22;55037;52.354;4.992;2022-07-05T03:41:31;16.90;78.70
68217;DHT22;55037;52.354;4.992;2022-07-05T03:43:59;17.00;78.20
68217;DHT22;55037;52.354;4.992;2022-07-05T03:46:26;17.10;77.70
68217;DHT22;55037;52.354;4.992;2022-07-05T03:48:54;17.10;77.60
68217;DHT22;55037;52.354;4.992;2022-07-05T03:51:21;17.10;77.30
68217;DHT22;55037;52.354;4.992;2022-07-05T03:53:49;17.20;77.10
68217;DHT22;55037;52.354;4.992;2022-07-05T03:56:16;17.20;76.80
68217;DHT22;55037;52.354;4.992;2022-07-05T03:58:50;17.20;76.70
68217;DHT22;55037;52.354;4.992;2022-07-05T04:01:17;17.20;76.80
68217;DHT22;55037;52.354;4.992;2022-07-05T04:03:45;17.30;76.70
68217;DHT22;55037;52.354;4.992;2022-07-05T04:06:15;16.10;75.90
68217;DHT22;55037;52.354;4.992;2022-07-05T04:08:42;17.30;76.30
68217;DHT22;55037;52.354;4.992;2022-07-05T04:11:09;17.30;76.40
68217;DHT22;55037;52.354;4.992;2022-07-05T04:13:42;17.40;76.50
68217;DHT22;55037;52.354;4.992;2022-07-05T04:16:10;17.40;76.20
68217;DHT22;55037;52.354;4.992;2022-07-05T04:18:37;17.40;76.20
68217;DHT22;55037;52.354;4.992;2022-07-05T04:21:05;17.50;76.00
68217;DHT22;55037;52.354;4.992;2022-07-05T04:23:32;17.60;75.70
68217;DHT22;55037;52.354;4.992;2022-07-05T04:26:01;17.60;74.90
68217;DHT22;55037;52.354;4.992;2022-07-05T04:28:39;17.70;74.60
68217;DHT22;55037;52.354;4.992;2022-07-05T04:31:10;17.70;74.30
68217;DHT22;55037;52.354;4.992;2022-07-05T04:33:41;17.80;74.10
68217;DHT22;55037;52.354;4.992;2022-07-05T04:36:11;17.80;74.00
68217;DHT22;55037;52.354;4.992;2022-07-05T04:38:39;17.80;74.10
68217;DHT22;55037;52.354;4.992;2022-07-05T04:41:07;17.80;73.90
68217;DHT22;55037;52.354;4.992;2022-07-05T04:43:36;17.90;73.80
68217;DHT22;55037;52.354;4.992;2022-07-05T04:46:06;18.00;73.60
68217;DHT22;55037;52.354;4.992;2022-07-05T04:48:34;18.10;72.90
68217;DHT22;55037;52.354;4.992;2022-07-05T04:51:01;18.20;72.50
68217;DHT22;55037;52.354;4.992;2022-07-05T04:53:31;18.30;72.30
68217;DHT22;55037;52.354;4.992;2022-07-05T04:55:58;18.40;72.10
68217;DHT22;55037;52.354;4.992;2022-07-05T04:58:25;18.40;71.70
68217;DHT22;55037;52.354;4.992;2022-07-05T05:00:52;18.50;71.50
68217;DHT22;55037;52.354;4.992;2022-07-05T05:03:20;18.50;71.20
68217;DHT22;55037;52.354;4.992;2022-07-05T05:05:47;18.60;70.70
68217;DHT22;55037;52.354;4.992;2022-07-05T05:08:15;18.50;70.90
68217;DHT22;55037;52.354;4.992;2022-07-05T05:10:42;18.50;71.90
68217;DHT22;55037;52.354;4.992;2022-07-05T05:13:09;18.40;71.00
68217;DHT22;55037;52.354;4.992;2022-07-05T05:15:36;18.30;71.20
68217;DHT22;55037;52.354;4.992;2022-07-05T05:18:04;18.20;71.00
68217;DHT22;55037;52.354;4.992;2022-07-05T05:20:31;18.10;71.60
68217;DHT22;55037;52.354;4.992;2022-07-05T05:23:04;18.10;72.00
68217;DHT22;55037;52.354;4.992;2022-07-05T05:25:31;18.10;72.20
68217;DHT22;55037;52.354;4.992;2022-07-05T05:27:58;18.10;71.90
68217;DHT22;55037;52.354;4.992;2022-07-05T05:30:26;18.10;71.80
68217;DHT22;55037;52.354;4.992;2022-07-05T05:32:53;18.10;72.20
68217;DHT22;55037;52.354;4.992;2022-07-05T05:35:20;18.20;72.10
68217;DHT22;55037;52.354;4.992;2022-07-05T05:37:53;18.20;71.60
68217;DHT22;55037;52.354;4.992;2022-07-05T05:40:22;18.20;71.50
68217;DHT22;55037;52.354;4.992;2022-07-05T05:42:52;18.30;71.40
68217;DHT22;55037;52.354;4.992;2022-07-05T05:45:20;18.30;71.60
68217;DHT22;55037;52.354;4.992;2022-07-05T05:47:52;18.30;71.30
68217;DHT22;55037;52.354;4.992;2022-07-05T05:50:24;18.40;70.40
68217;DHT22;55037;52.354;4.992;2022-07-05T05:52:52;18.50;69.20
68217;DHT22;55037;52.354;4.992;2022-07-05T05:55:20;18.70;69.30
68217;DHT22;55037;52.354;4.992;2022-07-05T05:57:48;18.90;69.70
68217;DHT22;55037;52.354;4.992;2022-07-05T06:00:16;19.20;64.80
68217;DHT22;55037;52.354;4.992;2022-07-05T06:02:45;19.50;62.60
68217;DHT22;55037;52.354;4.992;2022-07-05T06:05:13;19.70;61.20
68217;DHT22;55037;52.354;4.992;2022-07-05T06:07:51;20.10;60.10
68217;DHT22;55037;52.354;4.992;2022-07-05T06:10:23;20.40;58.20
68217;DHT22;55037;52.354;4.992;2022-07-05T06:12:53;20.50;57.10
68217;DHT22;55037;52.354;4.992;2022-07-05T06:15:20;20.50;56.70
68217;DHT22;55037;52.354;4.992;2022-07-05T06:17:48;20.60;55.80
68217;DHT22;55037;52.354;4.992;2022-07-05T06:20:22;20.60;55.40
68217;DHT22;55037;52.354;4.992;2022-07-05T06:22:50;20.60;55.50
68217;DHT22;55037;52.354;4.992;2022-07-05T06:25:18;20.60;54.90
68217;DHT22;55037;52.354;4.992;2022-07-05T06:28:01;20.40;55.90
68217;DHT22;55037;52.354;4.992;2022-07-05T06:30:30;20.40;55.10
68217;DHT22;55037;52.354;4.992;2022-07-05T06:32:57;20.40;56.00
68217;DHT22;55037;52.354;4.992;2022-07-05T06:35:25;20.60;54.90
68217;DHT22;55037;52.354;4.992;2022-07-05T06:37:53;20.70;54.10
68217;DHT22;55037;52.354;4.992;2022-07-05T06:40:26;20.80;53.80
68217;DHT22;55037;52.354;4.992;2022-07-05T06:42:55;20.80;53.30
68217;DHT22;55037;52.354;4.992;2022-07-05T06:45:29;20.70;53.00
68217;DHT22;55037;52.354;4.992;2022-07-05T06:48:04;20.70;52.30
68217;DHT22;55037;52.354;4.992;2022-07-05T06:50:35;20.90;52.30
68217;DHT22;55037;52.354;4.992;2022-07-05T06:53:03;21.30;50.50
68217;DHT22;55037;52.354;4.992;2022-07-05T06:55:30;21.50;50.10
68217;DHT22;55037;52.354;4.992;2022-07-05T07:00:42;21.50;47.80
68217;DHT22;55037;52.354;4.992;2022-07-05T07:03:30;21.30;48.40
68217;DHT22;55037;52.354;4.992;2022-07-05T07:06:17;21.10;47.50
68217;DHT22;55037;52.354;4.992;2022-07-05T07:08:45;21.00;48.20
68217;DHT22;55037;52.354;4.992;2022-07-05T07:11:30;21.00;48.40
68217;DHT22;55037;52.354;4.992;2022-07-05T07:13:58;21.10;50.10
68217;DHT22;55037;52.354;4.992;2022-07-05T07:16:25;21.30;48.30
68217;DHT22;55037;52.354;4.992;2022-07-05T07:18:53;21.60;47.50
68217;DHT22;55037;52.354;4.992;2022-07-05T07:21:40;22.30;46.40
68217;DHT22;55037;52.354;4.992;2022-07-05T07:24:08;22.70;44.30
68217;DHT22;55037;52.354;4.992;2022-07-05T07:26:36;22.70;43.10
68217;DHT22;55037;52.354;4.992;2022-07-05T07:29:22;22.20;43.70
68217;DHT22;55037;52.354;4.992;2022-07-05T07:31:50;22.10;44.20
68217;DHT22;55037;52.354;4.992;2022-07-05T07:34:17;22.20;44.20
68217;DHT22;55037;52.354;4.992;2022-07-05T07:36:44;22.10;45.10
68217;DHT22;55037;52.354;4.992;2022-07-05T07:39:11;22.00;44.30
68217;DHT22;55037;52.354;4.992;2022-07-05T07:41:38;21.90;45.00
68217;DHT22;55037;52.354;4.992;2022-07-05T07:44:06;22.00;45.10
68217;DHT22;55037;52.354;4.992;2022-07-05T07:46:33;22.00;44.30
68217;DHT22;55037;52.354;4.992;2022-07-05T07:49:01;22.20;44.50
68217;DHT22;55037;52.354;4.992;2022-07-05T07:51:29;22.20;44.50
68217;DHT22;55037;52.354;4.992;2022-07-05T07:53:56;22.10;45.10
68217;DHT22;55037;52.354;4.992;2022-07-05T07:56:28;21.80;46.20
68217;DHT22;55037;52.354;4.992;2022-07-05T07:58:56;21.60;47.90
68217;DHT22;55037;52.354;4.992;2022-07-05T08:01:23;21.40;49.10
68217;DHT22;55037;52.354;4.992;2022-07-05T08:03:50;21.20;50.00
68217;DHT22;55037;52.354;4.992;2022-07-05T08:06:18;21.10;51.80
68217;DHT22;55037;52.354;4.992;2022-07-05T08:08:45;21.00;51.20
68217;DHT22;55037;52.354;4.992;2022-07-05T08:11:14;21.10;51.40
68217;DHT22;55037;52.354;4.992;2022-07-05T08:13:42;21.30;49.80
68217;DHT22;55037;52.354;4.992;2022-07-05T08:16:10;21.40;48.60
68217;DHT22;55037;52.354;4.992;2022-07-05T08:18:38;21.60;48.10
68217;DHT22;55037;52.354;4.992;2022-07-05T08:21:25;21.70;47.00
68217;DHT22;55037;52.354;4.992;2022-07-05T08:23:59;21.70;46.60
68217;DHT22;55037;52.354;4.992;2022-07-05T08:26:27;21.80;47.30
68217;DHT22;55037;52.354;4.992;2022-07-05T08:28:55;22.10;46.80
68217;DHT22;55037;52.354;4.992;2022-07-05T08:31:43;22.40;45.40
68217;DHT22;55037;52.354;4.992;2022-07-05T08:34:11;22.70;45.00
68217;DHT22;55037;52.354;4.992;2022-07-05T08:36:39;22.90;44.10
68217;DHT22;55037;52.354;4.992;2022-07-05T08:39:10;22.90;43.20
68217;DHT22;55037;52.354;4.992;2022-07-05T08:41:39;23.20;42.90
68217;DHT22;55037;52.354;4.992;2022-07-05T08:44:07;23.20;42.00
68217;DHT22;55037;52.354;4.992;2022-07-05T08:46:38;22.90;42.70
68217;DHT22;55037;52.354;4.992;2022-07-05T08:49:05;22.70;43.20
68217;DHT22;55037;52.354;4.992;2022-07-05T08:51:40;22.50;43.10
68217;DHT22;55037;52.354;4.992;2022-07-05T08:54:11;22.40;43.00
68217;DHT22;55037;52.354;4.992;2022-07-05T08:56:44;22.60;42.10
68217;DHT22;55037;52.354;4.992;2022-07-05T08:59:31;22.70;41.80
68217;DHT22;55037;52.354;4.992;2022-07-05T09:01:59;22.90;42.20
68217;DHT22;55037;52.354;4.992;2022-07-05T09:04:30;23.20;41.90
68217;DHT22;55037;52.354;4.992;2022-07-05T09:07:03;23.20;41.30
68217;DHT22;55037;52.354;4.992;2022-07-05T09:09:38;23.00;42.00
68217;DHT22;55037;52.354;4.992;2022-07-05T09:12:14;23.10;42.10
68217;DHT22;55037;52.354;4.992;2022-07-05T09:14:49;23.10;41.70
68217;DHT22;55037;52.354;4.992;2022-07-05T09:17:17;23.10;41.90
68217;DHT22;55037;52.354;4.992;2022-07-05T09:19:52;23.20;41.50
68217;DHT22;55037;52.354;4.992;2022-07-05T09:22:59;24.00;41.30
68217;DHT22;55037;52.354;4.992;2022-07-05T09:25:31;24.60;38.80
68217;DHT22;55037;52.354;4.992;2022-07-05T09:28:01;24.10;39.10
68217;DHT22;55037;52.354;4.992;2022-07-05T09:35:35;26.60;33.40
68217;DHT22;55037;52.354;4.992;2022-07-05T09:38:06;25.50;35.10
68217;DHT22;55037;52.354;4.992;2022-07-05T09:40:52;24.40;38.10
68217;DHT22;55037;52.354;4.992;2022-07-05T09:43:22;23.80;39.70
68217;DHT22;55037;52.354;4.992;2022-07-05T09:46:01;23.30;40.00
68217;DHT22;55037;52.354;4.992;2022-07-05T09:48:31;23.70;41.50
68217;DHT22;55037;52.354;4.992;2022-07-05T09:51:09;25.10;37.80
68217;DHT22;55037;52.354;4.992;2022-07-05T09:53:58;25.90;34.00
68217;DHT22;55037;52.354;4.992;2022-07-05T09:56:43;25.20;34.50
68217;DHT22;55037;52.354;4.992;2022-07-05T09:59:15;24.60;37.10
68217;DHT22;55037;52.354;4.992;2022-07-05T10:01:45;24.70;38.20
68217;DHT22;55037;52.354;4.992;2022-07-05T10:04:13;24.90;38.50
68217;DHT22;55037;52.354;4.992;2022-07-05T10:06:40;24.90;37.70
68217;DHT22;55037;52.354;4.992;2022-07-05T10:09:09;25.10;36.90
68217;DHT22;55037;52.354;4.992;2022-07-05T10:11:40;25.20;37.70
68217;DHT22;55037;52.354;4.992;2022-07-05T10:14:12;26.90;35.20
68217;DHT22;55037;52.354;4.992;2022-07-05T10:16:52;27.50;32.40
68217;DHT22;55037;52.354;4.992;2022-07-05T10:19:22;26.90;32.50
68217;DHT22;55037;52.354;4.992;2022-07-05T10:21:51;26.30;34.10
68217;DHT22;55037;52.354;4.992;2022-07-05T10:24:40;27.20;33.60
68217;DHT22;55037;52.354;4.992;2022-07-05T10:27:08;28.20;29.70
68217;DHT22;55037;52.354;4.992;2022-07-05T10:29:36;27.40;31.10
68217;DHT22;55037;52.354;4.992;2022-07-05T10:32:07;30.60;28.30
68217;DHT22;55037;52.354;4.992;2022-07-05T10:34:37;33.10;24.00
68217;DHT22;55037;52.354;4.992;2022-07-05T10:37:28;34.00;22.30
68217;DHT22;55037;52.354;4.992;2022-07-05T10:39:58;32.20;23.00
68217;DHT22;55037;52.354;4.992;2022-07-05T10:50:57;28.50;27.20
68217;DHT22;55037;52.354;4.992;2022-07-05T10:58:39;27.20;28.40
68217;DHT22;55037;52.354;4.992;2022-07-05T11:04:24;31.50;23.80
68217;DHT22;55037;52.354;4.992;2022-07-05T11:06:54;33.40;21.20
68217;DHT22;55037;52.354;4.992;2022-07-05T11:09:21;32.20;21.40
68217;DHT22;55037;52.354;4.992;2022-07-05T11:14:39;34.00;21.50
68217;DHT22;55037;52.354;4.992;2022-07-05T11:17:12;35.10;18.90
68217;DHT22;55037;52.354;4.992;2022-07-05T11:20:02;33.20;20.20
68217;DHT22;55037;52.354;4.992;2022-07-05T11:22:30;31.40;21.80
68217;DHT22;55037;52.354;4.992;2022-07-05T11:24:58;30.40;23.00
68217;DHT22;55037;52.354;4.992;2022-07-05T11:27:26;29.20;24.50
68217;DHT22;55037;52.354;4.992;2022-07-05T11:29:55;30.00;24.80
68217;DHT22;55037;52.354;4.992;2022-07-05T11:35:17;33.00;21.00
68217;DHT22;55037;52.354;4.992;2022-07-05T11:37:57;30.70;22.70
68217;DHT22;55037;52.354;4.992;2022-07-05T11:40:46;29.00;24.90
68217;DHT22;55037;52.354;4.992;2022-07-05T11:43:13;28.00;26.10
68217;DHT22;55037;52.354;4.992;2022-07-05T11:45:40;27.70;27.10
68217;DHT22;55037;52.354;4.992;2022-07-05T11:48:14;31.00;25.00
68217;DHT22;55037;52.354;4.992;2022-07-05T11:50:42;32.20;21.60
68217;DHT22;55037;52.354;4.992;2022-07-05T11:53:09;33.50;21.50
68217;DHT22;55037;52.354;4.992;2022-07-05T11:55:39;34.90;19.40
68217;DHT22;55037;52.354;4.992;2022-07-05T11:58:09;36.20;19.10
68217;DHT22;55037;52.354;4.992;2022-07-05T12:00:37;38.40;17.00
68217;DHT22;55037;52.354;4.992;2022-07-05T12:03:14;40.20;15.80
68217;DHT22;55037;52.354;4.992;2022-07-05T12:05:43;41.30;15.10
68217;DHT22;55037;52.354;4.992;2022-07-05T12:08:10;40.40;14.40
68217;DHT22;55037;52.354;4.992;2022-07-05T12:10:37;36.90;16.50
68217;DHT22;55037;52.354;4.992;2022-07-05T12:13:46;36.10;17.10
68217;DHT22;55037;52.354;4.992;2022-07-05T12:16:15;36.00;17.20
68217;DHT22;55037;52.354;4.992;2022-07-05T12:18:50;34.30;19.10
68217;DHT22;55037;52.354;4.992;2022-07-05T12:21:18;35.00;19.00
68217;DHT22;55037;52.354;4.992;2022-07-05T12:23:48;35.70;17.50
68217;DHT22;55037;52.354;4.992;2022-07-05T12:26:17;34.30;18.60
68217;DHT22;55037;52.354;4.992;2022-07-05T12:28:45;33.60;19.90
68217;DHT22;55037;52.354;4.992;2022-07-05T12:31:20;34.70;19.10
68217;DHT22;55037;52.354;4.992;2022-07-05T12:33:50;36.00;17.50
68217;DHT22;55037;52.354;4.992;2022-07-05T12:36:19;35.10;18.10
68217;DHT22;55037;52.354;4.992;2022-07-05T12:38:47;33.70;18.90
68217;DHT22;55037;52.354;4.992;2022-07-05T12:41:21;32.90;20.10
68217;DHT22;55037;52.354;4.992;2022-07-05T12:43:54;33.40;19.90
68217;DHT22;55037;52.354;4.992;2022-07-05T12:46:35;33.10;18.60
68217;DHT22;55037;52.354;4.992;2022-07-05T12:49:10;30.90;20.50
68217;DHT22;55037;52.354;4.992;2022-07-05T12:51:39;29.80;22.60
68217;DHT22;55037;52.354;4.992;2022-07-05T12:54:17;29.90;21.50
68217;DHT22;55037;52.354;4.992;2022-07-05T12:57:04;29.10;21.80
68217;DHT22;55037;52.354;4.992;2022-07-05T13:00:07;27.90;24.70
68217;DHT22;55037;52.354;4.992;2022-07-05T13:02:35;28.00;27.00
68217;DHT22;55037;52.354;4.992;2022-07-05T13:05:25;29.00;25.40
68217;DHT22;55037;52.354;4.992;2022-07-05T13:07:53;28.60;25.50
68217;DHT22;55037;52.354;4.992;2022-07-05T13:10:26;27.80;26.40
68217;DHT22;55037;52.354;4.992;2022-07-05T13:13:06;26.80;26.50
68217;DHT22;55037;52.354;4.992;2022-07-05T13:15:36;26.00;26.90
68217;DHT22;55037;52.354;4.992;2022-07-05T13:18:05;26.00;27.70
68217;DHT22;55037;52.354;4.992;2022-07-05T13:20:32;26.80;28.10
68217;DHT22;55037;52.354;4.992;2022-07-05T13:22:59;28.20;26.70
68217;DHT22;55037;52.354;4.992;2022-07-05T13:25:27;28.20;25.80
68217;DHT22;55037;52.354;4.992;2022-07-05T13:27:54;29.40;25.40
68217;DHT22;55037;52.354;4.992;2022-07-05T13:30:22;31.60;23.30
68217;DHT22;55037;52.354;4.992;2022-07-05T13:32:50;33.40;21.00
68217;DHT22;55037;52.354;4.992;2022-07-05T13:35:17;32.70;20.90
68217;DHT22;55037;52.354;4.992;2022-07-05T13:37:44;30.50;22.60
68217;DHT22;55037;52.354;4.992;2022-07-05T13:40:11;28.70;24.10
68217;DHT22;55037;52.354;4.992;2022-07-05T13:42:39;27.70;27.10
68217;DHT22;55037;52.354;4.992;2022-07-05T13:45:06;28.60;26.90
68217;DHT22;55037;52.354;4.992;2022-07-05T13:47:34;29.60;25.70
68217;DHT22;55037;52.354;4.992;2022-07-05T13:50:01;29.80;24.50
68217;DHT22;55037;52.354;4.992;2022-07-05T13:52:47;28.20;25.70
68217;DHT22;55037;52.354;4.992;2022-07-05T13:55:14;26.90;28.60
68217;DHT22;55037;52.354;4.992;2022-07-05T13:57:41;26.60;30.10
68217;DHT22;55037;52.354;4.992;2022-07-05T14:00:10;26.50;30.70
68217;DHT22;55037;52.354;4.992;2022-07-05T14:02:39;28.20;30.90
68217;DHT22;55037;52.354;4.992;2022-07-05T14:05:07;31.00;27.40
68217;DHT22;55037;52.354;4.992;2022-07-05T14:07:34;32.20;23.50
68217;DHT22;55037;52.354;4.992;2022-07-05T14:10:03;32.60;22.80
68217;DHT22;55037;52.354;4.992;2022-07-05T14:12:30;32.20;22.30
68217;DHT22;55037;52.354;4.992;2022-07-05T14:14:57;31.20;24.50
68217;DHT22;55037;52.354;4.992;2022-07-05T14:17:24;30.10;26.00
68217;DHT22;55037;52.354;4.992;2022-07-05T14:19:52;28.60;27.50
68217;DHT22;55037;52.354;4.992;2022-07-05T14:22:19;27.10;29.00
68217;DHT22;55037;52.354;4.992;2022-07-05T14:24:46;26.20;30.40
68217;DHT22;55037;52.354;4.992;2022-07-05T14:27:13;26.00;32.40
68217;DHT22;55037;52.354;4.992;2022-07-05T14:29:41;27.00;31.60
68217;DHT22;55037;52.354;4.992;2022-07-05T14:32:08;28.80;29.30
68217;DHT22;55037;52.354;4.992;2022-07-05T14:34:36;29.60;27.30
68217;DHT22;55037;52.354;4.992;2022-07-05T14:37:03;30.40;27.10
68217;DHT22;55037;52.354;4.992;2022-07-05T14:39:30;30.10;26.50
68217;DHT22;55037;52.354;4.992;2022-07-05T14:41:57;28.40;27.80
68217;DHT22;55037;52.354;4.992;2022-07-05T14:44:25;26.80;30.00
68217;DHT22;55037;52.354;4.992;2022-07-05T14:46:52;25.90;32.80
68217;DHT22;55037;52.354;4.992;2022-07-05T14:49:19;25.80;33.00
68217;DHT22;55037;52.354;4.992;2022-07-05T14:51:46;25.30;33.90
68217;DHT22;55037;52.354;4.992;2022-07-05T14:54:14;25.00;34.40
68217;DHT22;55037;52.354;4.992;2022-07-05T14:56:41;24.30;35.50
68217;DHT22;55037;52.354;4.992;2022-07-05T14:59:08;23.70;37.40
68217;DHT22;55037;52.354;4.992;2022-07-05T15:01:35;23.40;38.20
68217;DHT22;55037;52.354;4.992;2022-07-05T15:04:03;23.50;38.20
68217;DHT22;55037;52.354;4.992;2022-07-05T15:06:30;23.30;37.70
68217;DHT22;55037;52.354;4.992;2022-07-05T15:08:57;23.40;38.70
68217;DHT22;55037;52.354;4.992;2022-07-05T15:11:25;23.70;37.90
68217;DHT22;55037;52.354;4.992;2022-07-05T15:13:53;24.50;37.60
68217;DHT22;55037;52.354;4.992;2022-07-05T15:16:21;24.90;35.40
68217;DHT22;55037;52.354;4.992;2022-07-05T15:18:49;24.90;34.80
68217;DHT22;55037;52.354;4.992;2022-07-05T15:21:16;24.20;34.50
68217;DHT22;55037;52.354;4.992;2022-07-05T15:23:43;23.50;35.60
68217;DHT22;55037;52.354;4.992;2022-07-05T15:26:11;23.10;37.30
68217;DHT22;55037;52.354;4.992;2022-07-05T15:28:38;23.00;37.60
68217;DHT22;55037;52.354;4.992;2022-07-05T15:31:05;22.80;37.30
68217;DHT22;55037;52.354;4.992;2022-07-05T15:33:32;23.30;36.60
68217;DHT22;55037;52.354;4.992;2022-07-05T15:36:00;23.80;36.00
68217;DHT22;55037;52.354;4.992;2022-07-05T15:38:27;23.70;35.50
68217;DHT22;55037;52.354;4.992;2022-07-05T15:40:54;23.20;36.50
68217;DHT22;55037;52.354;4.992;2022-07-05T15:43:23;22.80;37.60
68217;DHT22;55037;52.354;4.992;2022-07-05T15:45:55;22.60;38.70
68217;DHT22;55037;52.354;4.992;2022-07-05T15:48:22;22.70;38.10
68217;DHT22;55037;52.354;4.992;2022-07-05T15:50:50;22.60;38.30
68217;DHT22;55037;52.354;4.992;2022-07-05T15:53:29;22.40;39.40
68217;DHT22;55037;52.354;4.992;2022-07-05T15:55:57;22.30;40.90
68217;DHT22;55037;52.354;4.992;2022-07-05T15:58:32;22.30;40.80
68217;DHT22;55037;52.354;4.992;2022-07-05T16:01:00;22.60;40.20
68217;DHT22;55037;52.354;4.992;2022-07-05T16:03:29;23.30;38.70
68217;DHT22;55037;52.354;4.992;2022-07-05T16:05:56;24.40;36.80
68217;DHT22;55037;52.354;4.992;2022-07-05T16:08:25;25.30;33.60
68217;DHT22;55037;52.354;4.992;2022-07-05T16:10:53;25.20;32.40
68217;DHT22;55037;52.354;4.992;2022-07-05T16:13:22;24.70;33.20
68217;DHT22;55037;52.354;4.992;2022-07-05T16:15:50;24.10;34.10
68217;DHT22;55037;52.354;4.992;2022-07-05T16:18:37;24.10;34.80